sensor_id;sensor_type;location;lat;lon;timestamp;P1;durP1;ratioP1;P2;durP2;ratioP2
80623;SDS011;70269;44.768;9.600;2024-02-28T00:02:01;4.63;;;2.10;;
80623;SDS011;70269;44.768;9.600;2024-02-28T00:04:26;4.55;;;2.40;;
80623;SDS011;70269;44.768;9.600;2024-02-28T00:06:52;4.93;;;2.10;;
80623;SDS011;70269;44.768;9.600;2024-02-28T00:09:18;6.38;;;2.30;;
80623;SDS011;70269;44.768;9.600;2024-02-28T00:11:44;4.35;;;2.28;;
80623;SDS011;70269;44.768;9.600;2024-02-28T00:14:10;4.72;;;1.65;;
80623;SDS011;70269;44.768;9.600;2024-02-28T00:16:39;4.15;;;1.63;;
80623;SDS011;70269;44.768;9.600;2024-02-28T00:19:05;4.80;;;2.00;;
80623;SDS011;70269;44.768;9.600;2024-02-28T00:21:31;2.88;;;1.50;;
80623;SDS011;70269;44.768;9.600;2024-02-28T00:23:57;4.68;;;2.08;;
80623;SDS011;70269;44.768;9.600;2024-02-28T00:26:22;6.88;;;2.08;;
80623;SDS011;70269;44.768;9.600;2024-02-28T00:28:48;6.30;;;1.95;;
80623;SDS011;70269;44.768;9.600;2024-02-28T00:31:14;4.65;;;1.77;;
80623;SDS011;70269;44.768;9.600;2024-02-28T00:33:39;3.45;;;1.40;;
80623;SDS011;70269;44.768;9.600;2024-02-28T00:36:05;3.92;;;1.25;;
80623;SDS011;70269;44.768;9.600;2024-02-28T00:38:31;3.35;;;1.40;;
80623;SDS011;70269;44.768;9.600;2024-02-28T00:40:56;3.78;;;1.70;;
80623;SDS011;70269;44.768;9.600;2024-02-28T00:43:22;5.32;;;1.60;;
80623;SDS011;70269;44.768;9.600;2024-02-28T00:45:47;3.22;;;1.42;;
80623;SDS011;70269;44.768;9.600;2024-02-28T00:48:13;3.20;;;1.70;;
80623;SDS011;70269;44.768;9.600;2024-02-28T00:50:39;3.60;;;1.45;;
80623;SDS011;70269;44.768;9.600;2024-02-28T00:53:05;2.97;;;1.33;;
80623;SDS011;70269;44.768;9.600;2024-02-28T00:55:30;3.50;;;1.30;;
80623;SDS011;70269;44.768;9.600;2024-02-28T00:57:56;4.07;;;1.42;;
80623;SDS011;70269;44.768;9.600;2024-02-28T01:00:21;3.25;;;1.42;;
80623;SDS011;70269;44.768;9.600;2024-02-28T01:02:47;2.22;;;1.15;;
80623;SDS011;70269;44.768;9.600;2024-02-28T01:05:13;5.05;;;1.27;;
80623;SDS011;70269;44.768;9.600;2024-02-28T01:07:38;3.42;;;1.55;;
80623;SDS011;70269;44.768;9.600;2024-02-28T01:10:04;3.58;;;1.08;;
80623;SDS011;70269;44.768;9.600;2024-02-28T01:12:31;3.45;;;1.30;;
80623;SDS011;70269;44.768;9.600;2024-02-28T01:14:57;5.28;;;1.65;;
80623;SDS011;70269;44.768;9.600;2024-02-28T01:17:22;5.03;;;1.83;;
80623;SDS011;70269;44.768;9.600;2024-02-28T01:19:48;2.92;;;1.38;;
80623;SDS011;70269;44.768;9.600;2024-02-28T01:22:14;3.70;;;1.60;;
80623;SDS011;70269;44.768;9.600;2024-02-28T01:24:39;3.67;;;1.60;;
80623;SDS011;70269;44.768;9.600;2024-02-28T01:27:05;6.72;;;2.25;;
80623;SDS011;70269;44.768;9.600;2024-02-28T01:29:31;4.05;;;1.75;;
80623;SDS011;70269;44.768;9.600;2024-02-28T01:31:56;6.00;;;2.03;;
80623;SDS011;70269;44.768;9.600;2024-02-28T01:34:22;4.63;;;1.60;;
80623;SDS011;70269;44.768;9.600;2024-02-28T01:36:47;4.25;;;1.60;;
80623;SDS011;70269;44.768;9.600;2024-02-28T01:39:13;4.50;;;1.63;;
80623;SDS011;70269;44.768;9.600;2024-02-28T01:41:39;4.30;;;1.77;;
80623;SDS011;70269;44.768;9.600;2024-02-28T01:44:05;5.38;;;1.70;;
80623;SDS011;70269;44.768;9.600;2024-02-28T01:46:30;4.97;;;1.90;;
80623;SDS011;70269;44.768;9.600;2024-02-28T01:48:57;5.32;;;2.22;;
80623;SDS011;70269;44.768;9.600;2024-02-28T01:51:24;9.95;;;3.47;;
80623;SDS011;70269;44.768;9.600;2024-02-28T01:53:51;13.07;;;4.93;;
80623;SDS011;70269;44.768;9.600;2024-02-28T01:56:17;18.02;;;5.18;;
80623;SDS011;70269;44.768;9.600;2024-02-28T01:58:47;13.55;;;4.38;;
80623;SDS011;70269;44.768;9.600;2024-02-28T02:01:14;29.77;;;10.68;;
80623;SDS011;70269;44.768;9.600;2024-02-28T02:03:45;15.27;;;3.33;;
80623;SDS011;70269;44.768;9.600;2024-02-28T02:06:11;3.58;;;1.80;;
80623;SDS011;70269;44.768;9.600;2024-02-28T02:08:37;3.85;;;1.58;;
80623;SDS011;70269;44.768;9.600;2024-02-28T02:11:04;3.88;;;1.77;;
80623;SDS011;70269;44.768;9.600;2024-02-28T02:13:31;3.40;;;1.58;;
80623;SDS011;70269;44.768;9.600;2024-02-28T02:15:57;4.65;;;1.98;;
80623;SDS011;70269;44.768;9.600;2024-02-28T02:18:23;4.18;;;1.83;;
80623;SDS011;70269;44.768;9.600;2024-02-28T02:20:49;5.03;;;1.60;;
80623;SDS011;70269;44.768;9.600;2024-02-28T02:23:19;3.00;;;1.48;;
80623;SDS011;70269;44.768;9.600;2024-02-28T02:25:45;3.20;;;1.25;;
80623;SDS011;70269;44.768;9.600;2024-02-28T02:28:12;4.05;;;1.40;;
80623;SDS011;70269;44.768;9.600;2024-02-28T02:30:38;6.28;;;2.35;;
80623;SDS011;70269;44.768;9.600;2024-02-28T02:33:04;4.28;;;1.60;;
80623;SDS011;70269;44.768;9.600;2024-02-28T02:35:31;3.15;;;1.20;;
80623;SDS011;70269;44.768;9.600;2024-02-28T02:37:57;4.35;;;1.80;;
80623;SDS011;70269;44.768;9.600;2024-02-28T02:40:23;4.20;;;1.30;;
80623;SDS011;70269;44.768;9.600;2024-02-28T02:42:48;3.00;;;1.30;;
80623;SDS011;70269;44.768;9.600;2024-02-28T02:45:14;3.15;;;1.23;;
80623;SDS011;70269;44.768;9.600;2024-02-28T02:47:39;3.92;;;1.55;;
80623;SDS011;70269;44.768;9.600;2024-02-28T02:50:05;4.25;;;1.60;;
80623;SDS011;70269;44.768;9.600;2024-02-28T02:52:31;3.55;;;1.30;;
80623;SDS011;70269;44.768;9.600;2024-02-28T02:54:57;7.47;;;1.52;;
80623;SDS011;70269;44.768;9.600;2024-02-28T02:57:23;3.10;;;1.23;;
80623;SDS011;70269;44.768;9.600;2024-02-28T02:59:48;3.15;;;1.00;;
80623;SDS011;70269;44.768;9.600;2024-02-28T03:02:14;4.18;;;1.88;;
80623;SDS011;70269;44.768;9.600;2024-02-28T03:04:39;3.78;;;1.58;;
80623;SDS011;70269;44.768;9.600;2024-02-28T03:07:05;5.85;;;1.40;;
80623;SDS011;70269;44.768;9.600;2024-02-28T03:09:30;3.72;;;1.63;;
80623;SDS011;70269;44.768;9.600;2024-02-28T03:11:56;3.55;;;1.52;;
80623;SDS011;70269;44.768;9.600;2024-02-28T03:14:22;4.60;;;1.27;;
80623;SDS011;70269;44.768;9.600;2024-02-28T03:16:47;5.60;;;1.60;;
80623;SDS011;70269;44.768;9.600;2024-02-28T03:19:14;2.65;;;1.23;;
80623;SDS011;70269;44.768;9.600;2024-02-28T03:21:40;3.92;;;1.70;;
80623;SDS011;70269;44.768;9.600;2024-02-28T03:24:06;5.95;;;2.92;;
80623;SDS011;70269;44.768;9.600;2024-02-28T03:26:32;5.72;;;2.85;;
80623;SDS011;70269;44.768;9.600;2024-02-28T03:28:58;5.45;;;2.95;;
80623;SDS011;70269;44.768;9.600;2024-02-28T03:31:24;5.65;;;2.72;;
80623;SDS011;70269;44.768;9.600;2024-02-28T03:33:50;6.05;;;2.13;;
80623;SDS011;70269;44.768;9.600;2024-02-28T03:36:16;5.80;;;2.28;;
80623;SDS011;70269;44.768;9.600;2024-02-28T03:38:41;3.65;;;1.85;;
80623;SDS011;70269;44.768;9.600;2024-02-28T03:41:07;5.03;;;2.20;;
80623;SDS011;70269;44.768;9.600;2024-02-28T03:43:33;4.15;;;1.90;;
80623;SDS011;70269;44.768;9.600;2024-02-28T03:45:58;6.20;;;2.20;;
80623;SDS011;70269;44.768;9.600;2024-02-28T03:48:24;4.00;;;1.85;;
80623;SDS011;70269;44.768;9.600;2024-02-28T03:50:50;6.80;;;2.47;;
80623;SDS011;70269;44.768;9.600;2024-02-28T03:53:16;5.35;;;2.10;;
80623;SDS011;70269;44.768;9.600;2024-02-28T03:55:41;6.32;;;2.28;;
80623;SDS011;70269;44.768;9.600;2024-02-28T03:58:09;5.05;;;2.10;;
80623;SDS011;70269;44.768;9.600;2024-02-28T04:00:35;3.85;;;1.88;;
80623;SDS011;70269;44.768;9.600;2024-02-28T04:03:02;6.03;;;2.00;;
80623;SDS011;70269;44.768;9.600;2024-02-28T04:05:28;5.38;;;1.83;;
80623;SDS011;70269;44.768;9.600;2024-02-28T04:07:54;4.90;;;2.05;;
80623;SDS011;70269;44.768;9.600;2024-02-28T04:10:20;5.45;;;2.35;;
80623;SDS011;70269;44.768;9.600;2024-02-28T04:12:46;3.83;;;1.85;;
80623;SDS011;70269;44.768;9.600;2024-02-28T04:15:12;6.53;;;2.70;;
80623;SDS011;70269;44.768;9.600;2024-02-28T04:17:38;4.28;;;2.00;;
80623;SDS011;70269;44.768;9.600;2024-02-28T04:20:08;8.55;;;2.97;;
80623;SDS011;70269;44.768;9.600;2024-02-28T04:22:34;8.20;;;3.72;;
80623;SDS011;70269;44.768;9.600;2024-02-28T04:25:00;7.97;;;3.55;;
80623;SDS011;70269;44.768;9.600;2024-02-28T04:27:25;6.32;;;3.42;;
80623;SDS011;70269;44.768;9.600;2024-02-28T04:29:51;8.77;;;3.67;;
80623;SDS011;70269;44.768;9.600;2024-02-28T04:32:16;7.57;;;3.38;;
80623;SDS011;70269;44.768;9.600;2024-02-28T04:34:42;5.18;;;2.45;;
80623;SDS011;70269;44.768;9.600;2024-02-28T04:37:08;10.23;;;4.18;;
80623;SDS011;70269;44.768;9.600;2024-02-28T04:39:33;8.90;;;3.25;;
80623;SDS011;70269;44.768;9.600;2024-02-28T04:41:59;6.20;;;2.08;;
80623;SDS011;70269;44.768;9.600;2024-02-28T04:44:24;9.00;;;2.38;;
80623;SDS011;70269;44.768;9.600;2024-02-28T04:46:50;3.95;;;1.75;;
80623;SDS011;70269;44.768;9.600;2024-02-28T04:49:16;6.28;;;2.25;;
80623;SDS011;70269;44.768;9.600;2024-02-28T04:51:41;5.25;;;2.00;;
80623;SDS011;70269;44.768;9.600;2024-02-28T04:54:07;5.35;;;1.83;;
80623;SDS011;70269;44.768;9.600;2024-02-28T04:56:33;8.05;;;2.92;;
80623;SDS011;70269;44.768;9.600;2024-02-28T04:58:58;6.60;;;2.70;;
80623;SDS011;70269;44.768;9.600;2024-02-28T05:01:24;9.40;;;3.72;;
80623;SDS011;70269;44.768;9.600;2024-02-28T05:03:49;8.77;;;4.18;;
80623;SDS011;70269;44.768;9.600;2024-02-28T05:06:15;8.50;;;4.70;;
80623;SDS011;70269;44.768;9.600;2024-02-28T05:08:41;9.80;;;3.85;;
80623;SDS011;70269;44.768;9.600;2024-02-28T05:11:06;4.55;;;1.88;;
80623;SDS011;70269;44.768;9.600;2024-02-28T05:13:32;4.50;;;1.75;;
80623;SDS011;70269;44.768;9.600;2024-02-28T05:15:58;4.57;;;2.03;;
80623;SDS011;70269;44.768;9.600;2024-02-28T05:18:23;5.32;;;2.72;;
80623;SDS011;70269;44.768;9.600;2024-02-28T05:20:50;5.65;;;2.90;;
80623;SDS011;70269;44.768;9.600;2024-02-28T05:23:15;8.38;;;2.70;;
80623;SDS011;70269;44.768;9.600;2024-02-28T05:25:41;6.93;;;3.08;;
80623;SDS011;70269;44.768;9.600;2024-02-28T05:28:07;6.65;;;2.30;;
80623;SDS011;70269;44.768;9.600;2024-02-28T05:30:33;6.78;;;2.75;;
80623;SDS011;70269;44.768;9.600;2024-02-28T05:32:58;4.75;;;1.80;;
80623;SDS011;70269;44.768;9.600;2024-02-28T05:35:24;3.78;;;1.80;;
80623;SDS011;70269;44.768;9.600;2024-02-28T05:37:53;6.30;;;2.08;;
80623;SDS011;70269;44.768;9.600;2024-02-28T05:40:20;3.88;;;1.95;;
80623;SDS011;70269;44.768;9.600;2024-02-28T05:42:45;4.97;;;2.70;;
80623;SDS011;70269;44.768;9.600;2024-02-28T05:45:11;4.65;;;1.80;;
80623;SDS011;70269;44.768;9.600;2024-02-28T05:47:37;4.93;;;1.70;;
80623;SDS011;70269;44.768;9.600;2024-02-28T05:50:03;4.90;;;2.10;;
80623;SDS011;70269;44.768;9.600;2024-02-28T05:52:30;4.88;;;1.98;;
80623;SDS011;70269;44.768;9.600;2024-02-28T05:54:56;4.43;;;1.92;;
80623;SDS011;70269;44.768;9.600;2024-02-28T05:57:21;4.28;;;2.13;;
80623;SDS011;70269;44.768;9.600;2024-02-28T05:59:48;4.43;;;2.20;;
80623;SDS011;70269;44.768;9.600;2024-02-28T06:02:14;5.80;;;2.88;;
80623;SDS011;70269;44.768;9.600;2024-02-28T06:04:40;5.18;;;2.22;;
80623;SDS011;70269;44.768;9.600;2024-02-28T06:07:05;4.63;;;2.00;;
80623;SDS011;70269;44.768;9.600;2024-02-28T06:09:31;6.10;;;3.08;;
80623;SDS011;70269;44.768;9.600;2024-02-28T06:11:57;4.57;;;2.17;;
80623;SDS011;70269;44.768;9.600;2024-02-28T06:14:22;6.15;;;2.70;;
80623;SDS011;70269;44.768;9.600;2024-02-28T06:16:48;4.75;;;2.05;;
80623;SDS011;70269;44.768;9.600;2024-02-28T06:19:13;10.32;;;3.63;;
80623;SDS011;70269;44.768;9.600;2024-02-28T06:21:39;10.80;;;4.68;;
80623;SDS011;70269;44.768;9.600;2024-02-28T06:24:05;7.45;;;4.07;;
80623;SDS011;70269;44.768;9.600;2024-02-28T06:26:31;5.28;;;2.25;;
80623;SDS011;70269;44.768;9.600;2024-02-28T06:28:57;4.60;;;1.92;;
80623;SDS011;70269;44.768;9.600;2024-02-28T06:31:27;5.63;;;1.90;;
80623;SDS011;70269;44.768;9.600;2024-02-28T06:33:56;6.03;;;3.42;;
80623;SDS011;70269;44.768;9.600;2024-02-28T06:36:22;9.85;;;4.57;;
80623;SDS011;70269;44.768;9.600;2024-02-28T06:38:48;6.00;;;3.15;;
80623;SDS011;70269;44.768;9.600;2024-02-28T06:41:14;6.15;;;2.38;;
80623;SDS011;70269;44.768;9.600;2024-02-28T06:43:39;6.57;;;2.30;;
80623;SDS011;70269;44.768;9.600;2024-02-28T06:46:05;3.47;;;1.45;;
80623;SDS011;70269;44.768;9.600;2024-02-28T06:48:31;4.65;;;1.98;;
80623;SDS011;70269;44.768;9.600;2024-02-28T06:50:56;5.10;;;2.55;;
80623;SDS011;70269;44.768;9.600;2024-02-28T06:53:23;4.88;;;1.90;;
80623;SDS011;70269;44.768;9.600;2024-02-28T06:55:48;6.35;;;1.80;;
80623;SDS011;70269;44.768;9.600;2024-02-28T06:58:14;4.10;;;1.60;;
80623;SDS011;70269;44.768;9.600;2024-02-28T07:00:40;5.47;;;1.92;;
80623;SDS011;70269;44.768;9.600;2024-02-28T07:03:06;6.00;;;2.33;;
80623;SDS011;70269;44.768;9.600;2024-02-28T07:05:32;5.03;;;1.95;;
80623;SDS011;70269;44.768;9.600;2024-02-28T07:07:59;4.78;;;1.70;;
80623;SDS011;70269;44.768;9.600;2024-02-28T07:10:25;3.60;;;1.45;;
80623;SDS011;70269;44.768;9.600;2024-02-28T07:12:51;4.88;;;1.73;;
80623;SDS011;70269;44.768;9.600;2024-02-28T07:15:16;3.50;;;1.52;;
80623;SDS011;70269;44.768;9.600;2024-02-28T07:17:45;3.75;;;2.15;;
80623;SDS011;70269;44.768;9.600;2024-02-28T07:20:11;4.70;;;2.17;;
80623;SDS011;70269;44.768;9.600;2024-02-28T07:22:37;4.72;;;1.70;;
80623;SDS011;70269;44.768;9.600;2024-02-28T07:25:03;6.57;;;2.33;;
80623;SDS011;70269;44.768;9.600;2024-02-28T07:27:30;4.63;;;2.10;;
80623;SDS011;70269;44.768;9.600;2024-02-28T07:29:56;4.28;;;1.90;;
80623;SDS011;70269;44.768;9.600;2024-02-28T07:32:22;5.53;;;2.08;;
80623;SDS011;70269;44.768;9.600;2024-02-28T07:34:48;4.53;;;1.65;;
80623;SDS011;70269;44.768;9.600;2024-02-28T07:37:14;5.60;;;1.55;;
80623;SDS011;70269;44.768;9.600;2024-02-28T07:39:39;4.05;;;1.85;;
80623;SDS011;70269;44.768;9.600;2024-02-28T07:42:05;5.97;;;1.88;;
80623;SDS011;70269;44.768;9.600;2024-02-28T07:44:31;5.45;;;2.42;;
80623;SDS011;70269;44.768;9.600;2024-02-28T07:46:57;4.25;;;1.90;;
80623;SDS011;70269;44.768;9.600;2024-02-28T07:49:23;4.65;;;1.65;;
80623;SDS011;70269;44.768;9.600;2024-02-28T07:51:49;6.53;;;2.10;;
80623;SDS011;70269;44.768;9.600;2024-02-28T07:54:15;4.97;;;1.95;;
80623;SDS011;70269;44.768;9.600;2024-02-28T07:56:41;4.35;;;1.55;;
80623;SDS011;70269;44.768;9.600;2024-02-28T07:59:07;5.28;;;1.85;;
80623;SDS011;70269;44.768;9.600;2024-02-28T08:01:32;3.33;;;1.40;;
80623;SDS011;70269;44.768;9.600;2024-02-28T08:03:59;2.88;;;1.67;;
80623;SDS011;70269;44.768;9.600;2024-02-28T08:19:48;5.85;;;2.00;;
80623;SDS011;70269;44.768;9.600;2024-02-28T08:22:14;7.70;;;3.10;;
80623;SDS011;70269;44.768;9.600;2024-02-28T08:24:40;6.93;;;2.47;;
80623;SDS011;70269;44.768;9.600;2024-02-28T08:27:05;7.38;;;3.38;;
80623;SDS011;70269;44.768;9.600;2024-02-28T08:29:31;5.10;;;2.40;;
80623;SDS011;70269;44.768;9.600;2024-02-28T08:31:58;7.07;;;2.67;;
80623;SDS011;70269;44.768;9.600;2024-02-28T08:34:23;7.35;;;3.45;;
80623;SDS011;70269;44.768;9.600;2024-02-28T08:36:50;8.10;;;3.95;;
80623;SDS011;70269;44.768;9.600;2024-02-28T08:39:17;11.27;;;4.28;;
80623;SDS011;70269;44.768;9.600;2024-02-28T08:41:42;6.32;;;2.47;;
80623;SDS011;70269;44.768;9.600;2024-02-28T08:44:08;3.80;;;1.77;;
80623;SDS011;70269;44.768;9.600;2024-02-28T08:46:34;3.78;;;1.65;;
80623;SDS011;70269;44.768;9.600;2024-02-28T08:48:59;3.42;;;1.40;;
80623;SDS011;70269;44.768;9.600;2024-02-28T08:51:25;3.17;;;1.50;;
80623;SDS011;70269;44.768;9.600;2024-02-28T08:53:50;3.88;;;1.77;;
80623;SDS011;70269;44.768;9.600;2024-02-28T08:56:18;3.17;;;1.15;;
80623;SDS011;70269;44.768;9.600;2024-02-28T08:58:43;4.72;;;1.63;;
80623;SDS011;70269;44.768;9.600;2024-02-28T09:01:13;3.47;;;1.70;;
80623;SDS011;70269;44.768;9.600;2024-02-28T09:03:40;4.03;;;1.40;;
80623;SDS011;70269;44.768;9.600;2024-02-28T09:06:05;3.97;;;1.95;;
80623;SDS011;70269;44.768;9.600;2024-02-28T09:33:44;6.07;;;1.88;;
80623;SDS011;70269;44.768;9.600;2024-02-28T09:36:11;3.85;;;1.85;;
80623;SDS011;70269;44.768;9.600;2024-02-28T09:38:37;3.35;;;1.70;;
80623;SDS011;70269;44.768;9.600;2024-02-28T09:41:03;5.13;;;2.63;;
80623;SDS011;70269;44.768;9.600;2024-02-28T09:43:30;4.30;;;2.35;;
80623;SDS011;70269;44.768;9.600;2024-02-28T09:45:59;5.13;;;2.17;;
80623;SDS011;70269;44.768;9.600;2024-02-28T09:48:28;4.55;;;1.88;;
80623;SDS011;70269;44.768;9.600;2024-02-28T09:50:55;5.22;;;2.28;;
80623;SDS011;70269;44.768;9.600;2024-02-28T09:53:22;4.63;;;1.80;;
80623;SDS011;70269;44.768;9.600;2024-02-28T09:55:48;8.73;;;4.38;;
80623;SDS011;70269;44.768;9.600;2024-02-28T09:58:15;10.35;;;3.90;;
80623;SDS011;70269;44.768;9.600;2024-02-28T10:00:41;12.75;;;4.57;;
80623;SDS011;70269;44.768;9.600;2024-02-28T10:03:18;11.35;;;4.07;;
80623;SDS011;70269;44.768;9.600;2024-02-28T10:05:47;4.60;;;2.30;;
80623;SDS011;70269;44.768;9.600;2024-02-28T10:10:45;3.83;;;2.15;;
80623;SDS011;70269;44.768;9.600;2024-02-28T10:13:17;4.20;;;1.92;;
80623;SDS011;70269;44.768;9.600;2024-02-28T10:15:43;5.13;;;2.28;;
80623;SDS011;70269;44.768;9.600;2024-02-28T10:18:10;3.47;;;1.98;;
80623;SDS011;70269;44.768;9.600;2024-02-28T10:20:36;5.03;;;2.65;;
80623;SDS011;70269;44.768;9.600;2024-02-28T10:23:04;3.97;;;1.83;;
80623;SDS011;70269;44.768;9.600;2024-02-28T10:25:31;4.13;;;1.80;;
80623;SDS011;70269;44.768;9.600;2024-02-28T10:28:01;3.75;;;2.20;;
80623;SDS011;70269;44.768;9.600;2024-02-28T10:30:27;4.35;;;2.00;;
80623;SDS011;70269;44.768;9.600;2024-02-28T10:32:53;5.72;;;2.58;;
80623;SDS011;70269;44.768;9.600;2024-02-28T10:35:19;4.50;;;2.60;;
80623;SDS011;70269;44.768;9.600;2024-02-28T10:37:46;4.35;;;2.17;;
80623;SDS011;70269;44.768;9.600;2024-02-28T10:40:15;4.80;;;2.28;;
80623;SDS011;70269;44.768;9.600;2024-02-28T10:42:43;3.85;;;2.20;;
80623;SDS011;70269;44.768;9.600;2024-02-28T10:45:12;5.35;;;2.40;;
80623;SDS011;70269;44.768;9.600;2024-02-28T10:47:38;5.35;;;2.40;;
80623;SDS011;70269;44.768;9.600;2024-02-28T10:50:05;4.38;;;2.10;;
80623;SDS011;70269;44.768;9.600;2024-02-28T10:52:33;3.53;;;1.60;;
80623;SDS011;70269;44.768;9.600;2024-02-28T10:54:59;4.35;;;2.00;;
80623;SDS011;70269;44.768;9.600;2024-02-28T10:57:27;5.60;;;2.58;;
80623;SDS011;70269;44.768;9.600;2024-02-28T10:59:54;5.38;;;2.28;;
80623;SDS011;70269;44.768;9.600;2024-02-28T11:02:22;6.60;;;2.28;;
80623;SDS011;70269;44.768;9.600;2024-02-28T11:04:51;3.90;;;1.90;;
80623;SDS011;70269;44.768;9.600;2024-02-28T11:07:21;5.93;;;3.08;;
80623;SDS011;70269;44.768;9.600;2024-02-28T11:09:47;4.35;;;2.42;;
80623;SDS011;70269;44.768;9.600;2024-02-28T11:12:23;6.07;;;3.03;;
80623;SDS011;70269;44.768;9.600;2024-02-28T11:14:57;4.80;;;2.38;;
80623;SDS011;70269;44.768;9.600;2024-02-28T11:17:27;4.15;;;2.03;;
80623;SDS011;70269;44.768;9.600;2024-02-28T11:19:54;4.88;;;2.20;;
80623;SDS011;70269;44.768;9.600;2024-02-28T11:22:20;5.00;;;2.60;;
80623;SDS011;70269;44.768;9.600;2024-02-28T11:24:46;5.57;;;2.72;;
80623;SDS011;70269;44.768;9.600;2024-02-28T11:27:13;4.30;;;2.00;;
80623;SDS011;70269;44.768;9.600;2024-02-28T11:29:39;4.43;;;2.05;;
80623;SDS011;70269;44.768;9.600;2024-02-28T11:32:05;4.32;;;2.42;;
80623;SDS011;70269;44.768;9.600;2024-02-28T11:34:31;4.95;;;2.00;;
80623;SDS011;70269;44.768;9.600;2024-02-28T11:36:58;4.13;;;2.05;;
80623;SDS011;70269;44.768;9.600;2024-02-28T11:39:24;3.60;;;2.10;;
80623;SDS011;70269;44.768;9.600;2024-02-28T11:41:50;3.80;;;2.30;;
80623;SDS011;70269;44.768;9.600;2024-02-28T11:44:16;5.45;;;2.45;;
80623;SDS011;70269;44.768;9.600;2024-02-28T11:46:43;3.92;;;2.40;;
80623;SDS011;70269;44.768;9.600;2024-02-28T11:49:13;6.22;;;2.17;;
80623;SDS011;70269;44.768;9.600;2024-02-28T11:51:42;4.03;;;2.00;;
80623;SDS011;70269;44.768;9.600;2024-02-28T11:54:09;4.97;;;2.33;;
80623;SDS011;70269;44.768;9.600;2024-02-28T11:56:38;4.07;;;2.25;;
80623;SDS011;70269;44.768;9.600;2024-02-28T11:59:05;5.63;;;2.70;;
80623;SDS011;70269;44.768;9.600;2024-02-28T12:03:59;7.05;;;2.63;;
80623;SDS011;70269;44.768;9.600;2024-02-28T12:06:25;5.13;;;3.08;;
80623;SDS011;70269;44.768;9.600;2024-02-28T12:08:50;4.03;;;2.20;;
80623;SDS011;70269;44.768;9.600;2024-02-28T12:11:19;5.18;;;2.60;;
80623;SDS011;70269;44.768;9.600;2024-02-28T12:13:44;5.22;;;2.30;;
80623;SDS011;70269;44.768;9.600;2024-02-28T12:16:10;5.65;;;2.72;;
80623;SDS011;70269;44.768;9.600;2024-02-28T12:18:35;4.20;;;2.63;;
80623;SDS011;70269;44.768;9.600;2024-02-28T12:21:02;6.38;;;3.22;;
80623;SDS011;70269;44.768;9.600;2024-02-28T12:23:29;5.80;;;3.35;;
80623;SDS011;70269;44.768;9.600;2024-02-28T12:25:54;6.40;;;3.45;;
80623;SDS011;70269;44.768;9.600;2024-02-28T12:28:20;7.47;;;3.78;;
80623;SDS011;70269;44.768;9.600;2024-02-28T12:30:46;7.55;;;4.03;;
80623;SDS011;70269;44.768;9.600;2024-02-28T12:33:12;11.38;;;6.30;;
80623;SDS011;70269;44.768;9.600;2024-02-28T12:35:38;15.07;;;7.43;;
80623;SDS011;70269;44.768;9.600;2024-02-28T12:38:04;25.80;;;11.23;;
80623;SDS011;70269;44.768;9.600;2024-02-28T12:40:30;30.77;;;13.48;;
80623;SDS011;70269;44.768;9.600;2024-02-28T12:42:56;36.03;;;14.98;;
80623;SDS011;70269;44.768;9.600;2024-02-28T12:45:22;30.90;;;13.93;;
80623;SDS011;70269;44.768;9.600;2024-02-28T12:47:48;29.40;;;15.07;;
80623;SDS011;70269;44.768;9.600;2024-02-28T12:50:13;21.73;;;12.00;;
80623;SDS011;70269;44.768;9.600;2024-02-28T12:52:39;18.35;;;9.05;;
80623;SDS011;70269;44.768;9.600;2024-02-28T12:55:05;16.77;;;8.80;;
80623;SDS011;70269;44.768;9.600;2024-02-28T12:57:30;10.77;;;6.22;;
80623;SDS011;70269;44.768;9.600;2024-02-28T12:59:56;7.88;;;5.40;;
80623;SDS011;70269;44.768;9.600;2024-02-28T13:02:22;8.07;;;5.30;;
80623;SDS011;70269;44.768;9.600;2024-02-28T13:04:47;8.23;;;4.47;;
80623;SDS011;70269;44.768;9.600;2024-02-28T13:07:14;7.65;;;4.63;;
80623;SDS011;70269;44.768;9.600;2024-02-28T13:09:40;5.97;;;4.20;;
80623;SDS011;70269;44.768;9.600;2024-02-28T13:12:07;8.30;;;4.53;;
80623;SDS011;70269;44.768;9.600;2024-02-28T13:14:33;9.60;;;5.38;;
80623;SDS011;70269;44.768;9.600;2024-02-28T13:16:59;11.02;;;5.35;;
80623;SDS011;70269;44.768;9.600;2024-02-28T13:19:25;11.80;;;6.20;;
80623;SDS011;70269;44.768;9.600;2024-02-28T13:21:50;11.18;;;5.57;;
80623;SDS011;70269;44.768;9.600;2024-02-28T13:24:16;8.38;;;5.07;;
80623;SDS011;70269;44.768;9.600;2024-02-28T13:26:42;8.45;;;5.10;;
80623;SDS011;70269;44.768;9.600;2024-02-28T13:29:08;7.55;;;4.80;;
80623;SDS011;70269;44.768;9.600;2024-02-28T13:34:40;7.45;;;4.93;;
80623;SDS011;70269;44.768;9.600;2024-02-28T13:37:06;8.07;;;4.82;;
80623;SDS011;70269;44.768;9.600;2024-02-28T13:39:32;8.15;;;4.75;;
80623;SDS011;70269;44.768;9.600;2024-02-28T13:41:57;8.63;;;4.57;;
80623;SDS011;70269;44.768;9.600;2024-02-28T13:44:24;6.53;;;3.55;;
80623;SDS011;70269;44.768;9.600;2024-02-28T13:46:50;6.15;;;3.00;;
80623;SDS011;70269;44.768;9.600;2024-02-28T13:49:18;5.32;;;3.67;;
80623;SDS011;70269;44.768;9.600;2024-02-28T13:51:44;5.63;;;3.38;;
80623;SDS011;70269;44.768;9.600;2024-02-28T13:54:14;3.38;;;1.48;;
80623;SDS011;70269;44.768;9.600;2024-02-28T13:56:40;3.35;;;1.55;;
80623;SDS011;70269;44.768;9.600;2024-02-28T13:59:06;3.97;;;1.50;;
80623;SDS011;70269;44.768;9.600;2024-02-28T14:01:32;3.78;;;1.77;;
80623;SDS011;70269;44.768;9.600;2024-02-28T14:03:58;4.28;;;2.15;;
80623;SDS011;70269;44.768;9.600;2024-02-28T14:06:23;4.00;;;1.98;;
80623;SDS011;70269;44.768;9.600;2024-02-28T14:08:49;1.98;;;0.85;;
80623;SDS011;70269;44.768;9.600;2024-02-28T14:11:17;2.45;;;1.27;;
80623;SDS011;70269;44.768;9.600;2024-02-28T14:13:43;3.95;;;1.73;;
80623;SDS011;70269;44.768;9.600;2024-02-28T14:16:08;3.28;;;1.48;;
80623;SDS011;70269;44.768;9.600;2024-02-28T14:18:34;2.63;;;1.30;;
80623;SDS011;70269;44.768;9.600;2024-02-28T14:21:00;3.72;;;1.98;;
80623;SDS011;70269;44.768;9.600;2024-02-28T14:23:27;3.13;;;1.73;;
80623;SDS011;70269;44.768;9.600;2024-02-28T14:25:53;3.10;;;1.50;;
80623;SDS011;70269;44.768;9.600;2024-02-28T14:28:19;2.30;;;1.02;;
80623;SDS011;70269;44.768;9.600;2024-02-28T14:30:44;2.38;;;1.35;;
80623;SDS011;70269;44.768;9.600;2024-02-28T14:33:11;3.00;;;1.55;;
80623;SDS011;70269;44.768;9.600;2024-02-28T14:35:36;3.30;;;1.70;;
80623;SDS011;70269;44.768;9.600;2024-02-28T15:06:33;10.57;;;4.72;;
80623;SDS011;70269;44.768;9.600;2024-02-28T15:08:58;6.65;;;3.28;;
80623;SDS011;70269;44.768;9.600;2024-02-28T15:11:24;5.38;;;2.80;;
80623;SDS011;70269;44.768;9.600;2024-02-28T15:13:50;7.90;;;4.82;;
80623;SDS011;70269;44.768;9.600;2024-02-28T15:16:15;6.22;;;3.05;;
80623;SDS011;70269;44.768;9.600;2024-02-28T15:18:42;4.18;;;2.25;;
80623;SDS011;70269;44.768;9.600;2024-02-28T15:21:07;5.68;;;2.40;;
80623;SDS011;70269;44.768;9.600;2024-02-28T15:23:33;5.18;;;2.30;;
80623;SDS011;70269;44.768;9.600;2024-02-28T15:26:00;4.85;;;2.10;;
80623;SDS011;70269;44.768;9.600;2024-02-28T15:28:25;3.25;;;1.48;;
80623;SDS011;70269;44.768;9.600;2024-02-28T15:30:52;9.05;;;4.57;;
80623;SDS011;70269;44.768;9.600;2024-02-28T15:33:18;5.80;;;2.95;;
80623;SDS011;70269;44.768;9.600;2024-02-28T15:35:44;5.10;;;2.70;;
80623;SDS011;70269;44.768;9.600;2024-02-28T15:38:10;5.05;;;2.83;;
80623;SDS011;70269;44.768;9.600;2024-02-28T15:40:35;3.83;;;2.00;;
80623;SDS011;70269;44.768;9.600;2024-02-28T15:43:01;5.18;;;2.53;;
80623;SDS011;70269;44.768;9.600;2024-02-28T15:45:26;4.28;;;2.33;;
80623;SDS011;70269;44.768;9.600;2024-02-28T15:47:52;2.65;;;1.63;;
80623;SDS011;70269;44.768;9.600;2024-02-28T15:50:17;3.67;;;1.88;;
80623;SDS011;70269;44.768;9.600;2024-02-28T15:52:46;5.88;;;2.95;;
80623;SDS011;70269;44.768;9.600;2024-02-28T15:55:11;5.90;;;2.65;;